METAR Data
IDs: Format: Raw Decoded Include TAF

Data at: 0035 UTC 26 Oct 2021

PATO 252353Z AUTO 00000KT 10SM SCT003 BKN075 OVC100 02/02 A2906 RMK AO2 SLP841 T00170017 10017 21006 57002 TSNO $
PATO 252253Z AUTO 00000KT 4SM BR OVC002 02/01 A2906 RMK AO2 SLP842 T00170011 TSNO $
PATO 252250Z AUTO 09003KT 6SM BR OVC002 01/01 A2906 RMK AO2 TSNO $
PATO 252241Z AUTO 00000KT 2SM BR OVC002 01/01 A2906 RMK AO2 VIS 1V5 T00110011 TSNO $
PATO 252222Z AUTO 00000KT 3/4SM BR VV002 01/01 A2907 RMK AO2 T00110011 TSNO $
PATO 252153Z AUTO 00000KT 1/4SM FG VV002 01/01 A2907 RMK AO2 SLP843 T00110011 TSNO $